createdAt,value
2023-02-19T00:04:47.432Z,101121.94
2023-02-19T00:09:49.976Z,101111.53
2023-02-19T00:14:52.446Z,101119.34
2023-02-19T00:19:56.258Z,101107.88
2023-02-19T00:24:58.878Z,101104.38
2023-02-19T00:30:01.389Z,101109.56
2023-02-19T00:35:05.460Z,101101.03
2023-02-19T00:40:08.755Z,101090.78
2023-02-19T00:45:11.247Z,101095.03
2023-02-19T00:50:15.624Z,101090.47
2023-02-19T00:55:18.143Z,101090.63
2023-02-19T01:00:20.925Z,101086.34
2023-02-19T01:05:24.729Z,101085.84
2023-02-19T01:10:27.236Z,101072.25
2023-02-19T01:15:29.702Z,101087.03
2023-02-19T01:20:33.678Z,101086.13
2023-02-19T01:25:38.704Z,101094.81
2023-02-19T01:30:41.205Z,101084.41
2023-02-19T01:35:45.009Z,101091.44
2023-02-19T01:40:55.495Z,101087.03
2023-02-19T01:45:57.995Z,101089.63
2023-02-19T01:51:07.132Z,101093.91
2023-02-19T01:56:10.735Z,101095.75
2023-02-19T02:01:13.830Z,101100.13
2023-02-19T02:06:23.837Z,101097.81
2023-02-19T02:11:26.521Z,101100.72
2023-02-19T02:16:39.171Z,101103.59
2023-02-19T02:21:56.930Z,101098.53
2023-02-19T02:27:18.060Z,101100.63
2023-02-19T02:32:26.684Z,101105.00
2023-02-19T02:37:34.464Z,101105.47
2023-02-19T02:42:40.525Z,101097.78
2023-02-19T02:47:49.296Z,101103.25
2023-02-19T02:53:15.083Z,101106.00
2023-02-19T02:58:18.906Z,101100.16
2023-02-19T03:03:25.519Z,101097.97
2023-02-19T03:08:31.191Z,101091.34
2023-02-19T03:13:55.364Z,101097.72
2023-02-19T03:19:18.181Z,101088.63
2023-02-19T03:24:41.478Z,101076.56
2023-02-19T03:29:47.897Z,101062.78
2023-02-19T03:34:56.862Z,101064.59
2023-02-19T03:40:00.082Z,101063.06
2023-02-19T03:45:15.697Z,101049.41
2023-02-19T03:50:25.319Z,101060.06
2023-02-19T03:55:33.250Z,101061.00
2023-02-19T04:00:41.725Z,101067.84
2023-02-19T04:05:50.795Z,101072.94
2023-02-19T04:10:55.887Z,101080.72
2023-02-19T04:16:03.562Z,101092.97
2023-02-19T04:21:09.098Z,101096.75
2023-02-19T04:26:12.936Z,101090.75
2023-02-19T04:31:15.536Z,101109.09
2023-02-19T04:36:19.430Z,101104.81
2023-02-19T04:41:21.924Z,101110.66
2023-02-19T04:46:24.438Z,101119.34
2023-02-19T04:51:28.322Z,101122.88
2023-02-19T04:56:30.909Z,101119.22
2023-02-19T05:01:33.492Z,101125.34
2023-02-19T05:06:37.352Z,101132.06
2023-02-19T05:11:39.817Z,101137.28
2023-02-19T05:16:42.297Z,101150.91
2023-02-19T05:21:46.105Z,101144.69
2023-02-19T05:26:48.981Z,101154.31
2023-02-19T05:31:51.584Z,101160.78
2023-02-19T05:36:55.570Z,101159.59
2023-02-19T05:41:58.079Z,101170.38
2023-02-19T05:47:00.575Z,101175.28
2023-02-19T05:52:04.659Z,101175.16
2023-02-19T05:57:07.114Z,101180.84
2023-02-19T06:02:10.898Z,101184.06
2023-02-19T06:07:14.997Z,101191.31
2023-02-19T06:12:17.511Z,101186.00
2023-02-19T06:17:20.734Z,101189.09
2023-02-19T06:22:25.853Z,101208.66
2023-02-19T06:27:28.508Z,101222.28
2023-02-19T06:32:31.019Z,101223.81
2023-02-19T06:37:34.833Z,101218.78
2023-02-19T06:42:37.335Z,101243.03
2023-02-19T06:47:39.853Z,101239.69
2023-02-19T06:52:43.661Z,101247.47
2023-02-19T06:57:46.136Z,101256.03
2023-02-19T07:02:48.661Z,101254.22
2023-02-19T07:07:52.556Z,101260.19
2023-02-19T07:12:55.138Z,101282.94
2023-02-19T07:17:57.624Z,101290.75
2023-02-19T07:23:01.412Z,101299.44
2023-02-19T07:28:03.876Z,101316.09
2023-02-19T07:33:08.589Z,101313.78
2023-02-19T07:38:15.930Z,101322.91
2023-02-19T07:43:18.428Z,101341.34
2023-02-19T07:48:21.869Z,101340.88
2023-02-19T07:53:26.757Z,101362.41
2023-02-19T07:58:29.723Z,101373.00
2023-02-19T08:03:32.308Z,101367.88
2023-02-19T08:08:36.140Z,101387.03
2023-02-19T08:13:38.618Z,101388.19
2023-02-19T08:18:41.147Z,101394.50
2023-02-19T08:23:45.480Z,101396.38
2023-02-19T08:28:49.569Z,101404.41
2023-02-19T08:33:52.108Z,101420.97
2023-02-19T08:38:55.961Z,101443.25
2023-02-19T08:43:58.437Z,101445.16
2023-02-19T08:49:00.968Z,101447.00
2023-02-19T08:54:05.279Z,101462.09
2023-02-19T08:59:07.749Z,101451.47
2023-02-19T09:04:13.369Z,101466.22
2023-02-19T09:09:17.542Z,101465.50
2023-02-19T09:14:20.013Z,101468.88
2023-02-19T09:19:22.535Z,101473.84
2023-02-19T09:24:26.612Z,101480.78
2023-02-19T09:29:30.080Z,101501.59
2023-02-19T09:34:32.737Z,101510.19
2023-02-19T09:39:36.861Z,101498.97
2023-02-19T09:44:42.813Z,101512.97
2023-02-19T09:49:51.854Z,101514.75
2023-02-19T09:54:59.325Z,101536.34
2023-02-19T10:00:10.322Z,101540.09
2023-02-19T10:05:15.352Z,101550.53
2023-02-19T10:10:28.436Z,101555.91
2023-02-19T10:15:34.674Z,101571.16
2023-02-19T10:20:37.264Z,101580.97
2023-02-19T10:25:45.813Z,101590.63
2023-02-19T10:30:54.011Z,101590.13
2023-02-19T10:35:59.276Z,101587.75
2023-02-19T10:41:07.856Z,101605.25
2023-02-19T10:46:18.721Z,101624.03
2023-02-19T10:51:22.905Z,101639.44
2023-02-19T10:56:28.810Z,101661.06
2023-02-19T11:01:31.325Z,101677.34
2023-02-19T11:06:35.105Z,101651.75
2023-02-19T11:11:40.669Z,101655.09
2023-02-19T11:16:45.983Z,101672.19
2023-02-19T11:21:49.085Z,101683.31
2023-02-19T11:26:52.977Z,101676.22
2023-02-19T11:31:56.095Z,101689.38
2023-02-19T11:37:13.503Z,101684.41
2023-02-19T11:42:35.486Z,101709.69
2023-02-19T11:48:14.342Z,101719.81
2023-02-19T11:53:25.998Z,101712.88
2023-02-19T11:59:02.494Z,101713.94
2023-02-19T12:04:26.368Z,101708.34
2023-02-19T12:09:41.394Z,101708.91
2023-02-19T12:15:07.379Z,101713.94
2023-02-19T12:20:19.459Z,101724.31
2023-02-19T12:25:57.876Z,101728.88
2023-02-19T12:31:41.439Z,101747.25
2023-02-19T12:36:54.652Z,101737.38
2023-02-19T12:42:04.441Z,101748.34
2023-02-19T12:47:17.051Z,101764.88
2023-02-19T12:52:23.687Z,101772.88
2023-02-19T12:57:30.656Z,101764.28
2023-02-19T13:02:42.766Z,101758.81
2023-02-19T13:07:52.210Z,101768.59
2023-02-19T13:12:58.754Z,101776.44
2023-02-19T13:18:06.209Z,101783.91
2023-02-19T13:23:31.223Z,101795.78
2023-02-19T13:28:51.606Z,101793.22
2023-02-19T13:34:05.796Z,101779.09
2023-02-19T13:39:08.947Z,101779.59
2023-02-19T13:44:19.339Z,101776.09
2023-02-19T13:49:41.326Z,101754.66
2023-02-19T13:54:43.821Z,101744.88
2023-02-19T13:59:48.348Z,101744.34
2023-02-19T14:04:55.386Z,101743.44
2023-02-19T14:09:58.501Z,101743.16
2023-02-19T14:15:34.596Z,101755.97
2023-02-19T14:20:45.978Z,101767.84
2023-02-19T14:26:00.062Z,101768.38
2023-02-19T14:31:11.547Z,101761.31
2023-02-19T14:36:31.976Z,101754.66
2023-02-19T14:41:39.859Z,101765.38
2023-02-19T14:46:50.436Z,101763.28
2023-02-19T14:51:59.332Z,101791.78
2023-02-19T14:57:04.576Z,101786.28
2023-02-19T15:02:16.069Z,101778.97
2023-02-19T15:07:24.343Z,101777.81
2023-02-19T15:12:29.925Z,101772.56
2023-02-19T15:17:34.866Z,101778.31
2023-02-19T15:22:41.526Z,101784.44
2023-02-19T15:27:44.405Z,101790.31
2023-02-19T15:32:53.547Z,101788.34
2023-02-19T15:37:57.755Z,101795.63
2023-02-19T15:43:01.516Z,101789.47
2023-02-19T15:48:09.809Z,101802.22
2023-02-19T15:53:17.968Z,101814.34
2023-02-19T15:58:27.853Z,101819.53
2023-02-19T16:03:31.698Z,101811.94
2023-02-19T16:08:36.846Z,101817.53
2023-02-19T16:13:39.330Z,101814.22
2023-02-19T16:18:46.306Z,101802.19
2023-02-19T16:23:54.535Z,101808.53
2023-02-19T16:28:57.157Z,101800.22
2023-02-19T16:34:17.490Z,101788.38
2023-02-19T16:39:30.923Z,101798.28
2023-02-19T16:44:36.488Z,101793.09
2023-02-19T16:49:40.194Z,101802.81
2023-02-19T16:54:44.588Z,101802.31
2023-02-19T16:59:47.630Z,101801.94
2023-02-19T17:04:51.821Z,101802.88
2023-02-19T17:09:55.684Z,101807.38
2023-02-19T17:14:58.189Z,101810.16
2023-02-19T17:20:00.704Z,101811.53
2023-02-19T17:25:04.719Z,101819.19
2023-02-19T17:30:13.656Z,101821.66
2023-02-19T17:35:16.430Z,101829.16
2023-02-19T17:40:32.630Z,101827.78
2023-02-19T17:45:36.198Z,101828.25
2023-02-19T17:50:38.680Z,101829.66
2023-02-19T17:55:42.513Z,101836.56
2023-02-19T18:00:45.004Z,101839.16
2023-02-19T18:05:47.572Z,101839.31
2023-02-19T18:10:52.568Z,101848.59
2023-02-19T18:15:55.131Z,101849.84
2023-02-19T18:20:57.656Z,101851.34
2023-02-19T18:26:01.520Z,101845.72
2023-02-19T18:31:04.426Z,101846.97
2023-02-19T18:36:11.356Z,101844.53
2023-02-19T18:41:19.752Z,101839.66
2023-02-19T18:46:22.929Z,101840.41
2023-02-19T18:51:25.521Z,101839.66
2023-02-19T18:56:30.584Z,101835.34
2023-02-19T19:01:33.096Z,101854.47
2023-02-19T19:06:35.955Z,101843.16
2023-02-19T19:11:40.622Z,101834.16
2023-02-19T19:16:44.312Z,101845.16
2023-02-19T19:21:53.193Z,101840.28
2023-02-19T19:26:57.285Z,101831.09
2023-02-19T19:32:00.111Z,101832.78
2023-02-19T19:37:02.644Z,101832.78
2023-02-19T19:42:08.851Z,101829.59
2023-02-19T19:47:11.377Z,101830.94
2023-02-19T19:52:13.913Z,101840.16
2023-02-19T19:57:18.044Z,101830.34
2023-02-19T20:02:20.836Z,101820.56
2023-02-19T20:07:23.344Z,101823.75
2023-02-19T20:12:27.210Z,101834.63
2023-02-19T20:17:29.713Z,101831.56
2023-02-19T20:22:32.227Z,101830.38
2023-02-19T20:27:36.130Z,101830.97
2023-02-19T20:32:38.640Z,101817.22
2023-02-19T20:37:41.431Z,101827.59
2023-02-19T20:42:45.261Z,101809.25
2023-02-19T20:47:47.847Z,101804.81
2023-02-19T20:52:50.451Z,101817.81
2023-02-19T20:57:54.288Z,101814.91
2023-02-19T21:02:56.927Z,101806.81
2023-02-19T21:07:59.486Z,101793.81
2023-02-19T21:13:03.329Z,101788.94
2023-02-19T21:18:05.903Z,101790.28
2023-02-19T21:23:08.443Z,101783.72
2023-02-19T21:28:12.424Z,101773.78
2023-02-19T21:33:16.582Z,101772.69
2023-02-19T21:38:19.088Z,101767.97
2023-02-19T21:43:22.939Z,101763.25
2023-02-19T21:48:25.439Z,101774.69
2023-02-19T21:53:27.923Z,101777.13
2023-02-19T21:58:31.777Z,101772.53
2023-02-19T22:03:34.266Z,101775.91
2023-02-19T22:08:36.743Z,101765.50
2023-02-19T22:13:40.696Z,101757.56
2023-02-19T22:18:47.948Z,101760.16
2023-02-19T22:23:52.606Z,101754.50
2023-02-19T22:28:57.972Z,101744.28
2023-02-19T22:34:00.482Z,101741.81
2023-02-19T22:39:03.161Z,101737.72
2023-02-19T22:44:07.154Z,101735.41
2023-02-19T22:49:09.646Z,101737.41
2023-02-19T22:54:12.126Z,101727.16
2023-02-19T22:59:15.977Z,101703.19
2023-02-19T23:04:18.645Z,101708.06
2023-02-19T23:09:23.413Z,101700.88
2023-02-19T23:14:27.363Z,101698.84
2023-02-19T23:19:29.873Z,101686.44
2023-02-19T23:24:32.875Z,101665.34
2023-02-19T23:29:36.677Z,101674.66
2023-02-19T23:34:39.208Z,101676.00
2023-02-19T23:39:41.710Z,101659.03
2023-02-19T23:44:48.104Z,101670.94
2023-02-19T23:49:50.567Z,101657.44
2023-02-19T23:54:53.048Z,101649.97
2023-02-19T23:59:56.878Z,101639.03
